Airfield :
LOGIN :

Register | Disclaimer

   EN    FR    IT 

 










Legend :    VFR   Marginal VFR   IFR   Intensive IFR   Very Intensive IFR
Visi :
Ceiling :
>= 8 km
>= 3000ft
5 to 8 km
1000 to 3000 ft
1500m to 5 km
500 to 1000 ft
800 to 1500m
200 to 500 ft
< 800m
< 200 ft
Symbols :   Thunderstorms  Fog  Heavy snow  Heavy precipitations  Wind > 20 kt
SIGMETs :     Misc.  Thunderstorms  Icing  Turbulence  Mountain Waves  Volcanic Ashes






- Airport Elevation : 278 ft
- IATA code : RJK


LDRI - Rijeka

CURRENT METAR :
  • 291800Z 00000KT CAVOK 08/06 Q1012

EXPIRED METARs :
  • 291730Z VRB01KT CAVOK 08/06 Q1011
  • 291700Z 33002KT CAVOK 09/07 Q1011
  • 291630Z 32003KT CAVOK 09/06 Q1011
  • 291600Z 33004KT CAVOK 10/07 Q1010
  • 291530Z 28004KT 230V320 CAVOK 12/06 Q1010

TAF TAF LDRI
Valid from the 29 at 18:00 until the 30 at 18:00 UTC


291725Z 2918/3018 VRB02KT 9999 SCT035 TX14/3013Z TN00/3004Z
PROB30
TEMPO 2918/3006 06010KT



MET'MAP, your aeronautical weather chart ! - Copyright ORBIFLY December 2007 - Disclaimer

ORBIFLY MET'MAP TEAM :

Programming & Development : Alexandra Zaïnal
Concept & original design : Baudouin d'Aumeries
Assistance for programming : Marc-Olivier Méhu
Technical & hardware support : Manuel Goepfert

Contact : metmap@orbifly.com




SOURCES & CREDITS :

   NOAA